sensor_id;sensor_type;location;lat;lon;timestamp;pressure;altitude;pressure_sealevel;temperature;humidity
70544;BME280;58097;48.364;-1.224;2023-02-28T00:00:17;100768.97;;;0.85;65.22
70544;BME280;58097;48.364;-1.224;2023-02-28T00:02:43;100770.81;;;0.85;65.26
70544;BME280;58097;48.364;-1.224;2023-02-28T00:05:11;100763.69;;;0.82;65.37
70544;BME280;58097;48.364;-1.224;2023-02-28T00:07:36;100772.16;;;0.76;65.57
70544;BME280;58097;48.364;-1.224;2023-02-28T00:10:03;100778.41;;;0.78;65.86
70544;BME280;58097;48.364;-1.224;2023-02-28T00:12:29;100769.59;;;0.73;65.92
70544;BME280;58097;48.364;-1.224;2023-02-28T00:14:54;100777.59;;;0.76;65.03
70544;BME280;58097;48.364;-1.224;2023-02-28T00:17:20;100774.09;;;0.74;65.38
70544;BME280;58097;48.364;-1.224;2023-02-28T00:19:51;100784.00;;;0.75;65.17
70544;BME280;58097;48.364;-1.224;2023-02-28T00:22:20;100780.16;;;0.79;64.71
70544;BME280;58097;48.364;-1.224;2023-02-28T00:24:46;100780.50;;;0.73;65.22
70544;BME280;58097;48.364;-1.224;2023-02-28T00:27:12;100777.94;;;0.70;65.25
70544;BME280;58097;48.364;-1.224;2023-02-28T00:29:37;100777.06;;;0.70;65.59
70544;BME280;58097;48.364;-1.224;2023-02-28T00:32:04;100782.50;;;0.70;65.28
70544;BME280;58097;48.364;-1.224;2023-02-28T00:34:30;100788.00;;;0.68;65.47
70544;BME280;58097;48.364;-1.224;2023-02-28T00:36:55;100783.44;;;0.69;64.90
70544;BME280;58097;48.364;-1.224;2023-02-28T00:39:20;100776.25;;;0.68;65.58
70544;BME280;58097;48.364;-1.224;2023-02-28T00:41:46;100787.28;;;0.65;66.56
70544;BME280;58097;48.364;-1.224;2023-02-28T00:44:11;100777.38;;;0.64;66.35
70544;BME280;58097;48.364;-1.224;2023-02-28T00:46:37;100777.59;;;0.59;68.29
70544;BME280;58097;48.364;-1.224;2023-02-28T00:49:02;100773.13;;;0.58;67.61
70544;BME280;58097;48.364;-1.224;2023-02-28T00:51:27;100775.84;;;0.58;67.84
70544;BME280;58097;48.364;-1.224;2023-02-28T00:53:53;100774.00;;;0.58;68.32
70544;BME280;58097;48.364;-1.224;2023-02-28T00:56:19;100770.41;;;0.58;68.17
70544;BME280;58097;48.364;-1.224;2023-02-28T00:58:44;100776.75;;;0.57;69.39
70544;BME280;58097;48.364;-1.224;2023-02-28T01:01:09;100775.84;;;0.58;69.07
70544;BME280;58097;48.364;-1.224;2023-02-28T01:03:35;100774.81;;;0.60;68.40
70544;BME280;58097;48.364;-1.224;2023-02-28T01:06:00;100778.88;;;0.69;67.01
70544;BME280;58097;48.364;-1.224;2023-02-28T01:08:26;100779.69;;;0.71;66.09
70544;BME280;58097;48.364;-1.224;2023-02-28T01:10:52;100775.94;;;0.74;66.04
70544;BME280;58097;48.364;-1.224;2023-02-28T01:13:17;100789.44;;;0.75;65.33
70544;BME280;58097;48.364;-1.224;2023-02-28T01:15:50;100776.72;;;0.76;64.84
70544;BME280;58097;48.364;-1.224;2023-02-28T01:18:18;100787.53;;;0.77;64.79
70544;BME280;58097;48.364;-1.224;2023-02-28T01:20:44;100789.44;;;0.75;64.65
70544;BME280;58097;48.364;-1.224;2023-02-28T01:23:11;100796.72;;;0.75;64.88
70544;BME280;58097;48.364;-1.224;2023-02-28T01:25:37;100791.28;;;0.75;64.95
70544;BME280;58097;48.364;-1.224;2023-02-28T01:28:02;100796.72;;;0.75;64.46
70544;BME280;58097;48.364;-1.224;2023-02-28T01:30:28;100800.34;;;0.75;64.80
70544;BME280;58097;48.364;-1.224;2023-02-28T01:32:54;100802.19;;;0.75;65.24
70544;BME280;58097;48.364;-1.224;2023-02-28T01:35:19;100795.06;;;0.72;66.32
70544;BME280;58097;48.364;-1.224;2023-02-28T01:37:45;100794.41;;;0.67;66.16
70544;BME280;58097;48.364;-1.224;2023-02-28T01:40:11;100797.06;;;0.69;65.39
70544;BME280;58097;48.364;-1.224;2023-02-28T01:42:37;100803.59;;;0.65;64.97
70544;BME280;58097;48.364;-1.224;2023-02-28T01:45:25;100809.28;;;0.60;66.03
70544;BME280;58097;48.364;-1.224;2023-02-28T01:47:52;100805.00;;;0.54;66.00
70544;BME280;58097;48.364;-1.224;2023-02-28T01:50:21;100804.59;;;0.45;66.61
70544;BME280;58097;48.364;-1.224;2023-02-28T01:52:48;100796.00;;;0.35;67.03
70544;BME280;58097;48.364;-1.224;2023-02-28T01:55:17;100801.00;;;0.25;67.37
70544;BME280;58097;48.364;-1.224;2023-02-28T01:57:50;100804.81;;;0.21;68.04
70544;BME280;58097;48.364;-1.224;2023-02-28T02:00:20;100806.97;;;0.15;68.51
70544;BME280;58097;48.364;-1.224;2023-02-28T02:02:49;100812.78;;;0.07;69.10
70544;BME280;58097;48.364;-1.224;2023-02-28T02:05:19;100811.97;;;0.05;69.83
70544;BME280;58097;48.364;-1.224;2023-02-28T02:07:50;100813.06;;;0.01;70.02
70544;BME280;58097;48.364;-1.224;2023-02-28T02:10:21;100803.16;;;0.00;69.99
70544;BME280;58097;48.364;-1.224;2023-02-28T02:18:47;100811.34;;;-0.02;70.13
70544;BME280;58097;48.364;-1.224;2023-02-28T02:32:18;100813.06;;;0.01;70.68
70544;BME280;58097;48.364;-1.224;2023-02-28T02:43:00;100804.38;;;-0.07;70.36
70544;BME280;58097;48.364;-1.224;2023-02-28T02:46:13;100807.31;;;-0.12;70.32
70544;BME280;58097;48.364;-1.224;2023-02-28T02:48:42;100803.56;;;-0.09;69.77
70544;BME280;58097;48.364;-1.224;2023-02-28T02:51:20;100806.06;;;-0.05;69.27
70544;BME280;58097;48.364;-1.224;2023-02-28T02:54:13;100799.66;;;-0.04;69.17
70544;BME280;58097;48.364;-1.224;2023-02-28T02:56:35;100803.28;;;-0.03;69.88
70544;BME280;58097;48.364;-1.224;2023-02-28T02:59:04;100805.19;;;-0.05;69.91
70544;BME280;58097;48.364;-1.224;2023-02-28T03:01:32;100799.91;;;-0.08;69.63
70544;BME280;58097;48.364;-1.224;2023-02-28T03:19:44;100787.63;;;-0.17;70.14
70544;BME280;58097;48.364;-1.224;2023-02-28T03:30:52;100805.25;;;-0.07;67.82
70544;BME280;58097;48.364;-1.224;2023-02-28T03:33:36;100812.38;;;-0.04;68.03
70544;BME280;58097;48.364;-1.224;2023-02-28T03:36:11;100804.06;;;-0.01;67.64
70544;BME280;58097;48.364;-1.224;2023-02-28T03:38:41;100807.69;;;-0.01;67.61
70544;BME280;58097;48.364;-1.224;2023-02-28T03:41:17;100806.78;;;-0.01;67.72
70544;BME280;58097;48.364;-1.224;2023-02-28T03:43:50;100809.47;;;0.01;67.16
70544;BME280;58097;48.364;-1.224;2023-02-28T03:46:22;100797.84;;;-0.03;67.11
70544;BME280;58097;48.364;-1.224;2023-02-28T03:48:54;100804.75;;;-0.15;68.12
70544;BME280;58097;48.364;-1.224;2023-02-28T03:51:22;100802.16;;;-0.18;67.73
70544;BME280;58097;48.364;-1.224;2023-02-28T03:53:53;100794.97;;;-0.19;67.49
70544;BME280;58097;48.364;-1.224;2023-02-28T03:56:29;100795.94;;;-0.20;67.42
70544;BME280;58097;48.364;-1.224;2023-02-28T03:59:16;100804.16;;;-0.21;67.42
70544;BME280;58097;48.364;-1.224;2023-02-28T04:01:45;100805.25;;;-0.25;67.27
70544;BME280;58097;48.364;-1.224;2023-02-28T04:04:12;100806.22;;;-0.26;67.24
70544;BME280;58097;48.364;-1.224;2023-02-28T04:06:38;100807.28;;;-0.31;67.16
70544;BME280;58097;48.364;-1.224;2023-02-28T04:09:05;100811.81;;;-0.31;66.64
70544;BME280;58097;48.364;-1.224;2023-02-28T04:11:40;100812.84;;;-0.34;66.75
70544;BME280;58097;48.364;-1.224;2023-02-28T04:14:08;100814.84;;;-0.37;66.49
70544;BME280;58097;48.364;-1.224;2023-02-28T04:16:36;100810.34;;;-0.38;66.84
70544;BME280;58097;48.364;-1.224;2023-02-28T04:19:03;100817.69;;;-0.40;66.57
70544;BME280;58097;48.364;-1.224;2023-02-28T04:21:31;100808.81;;;-0.44;66.61
70544;BME280;58097;48.364;-1.224;2023-02-28T04:23:57;100818.78;;;-0.44;66.51
70544;BME280;58097;48.364;-1.224;2023-02-28T04:26:35;100817.97;;;-0.46;66.79
70544;BME280;58097;48.364;-1.224;2023-02-28T04:29:02;100821.72;;;-0.49;66.59
70544;BME280;58097;48.364;-1.224;2023-02-28T04:31:27;100826.34;;;-0.51;66.89
70544;BME280;58097;48.364;-1.224;2023-02-28T04:33:52;100821.78;;;-0.50;66.95
70544;BME280;58097;48.364;-1.224;2023-02-28T04:36:18;100825.38;;;-0.50;66.50
70544;BME280;58097;48.364;-1.224;2023-02-28T04:38:44;100820.97;;;-0.52;66.36
70544;BME280;58097;48.364;-1.224;2023-02-28T04:41:10;100822.81;;;-0.53;66.52
70544;BME280;58097;48.364;-1.224;2023-02-28T04:43:35;100820.16;;;-0.54;66.58
70544;BME280;58097;48.364;-1.224;2023-02-28T04:46:03;100822.00;;;-0.55;66.88
70544;BME280;58097;48.364;-1.224;2023-02-28T04:48:30;100834.69;;;-0.55;67.05
70544;BME280;58097;48.364;-1.224;2023-02-28T04:51:17;100839.16;;;-0.54;67.05
70544;BME280;58097;48.364;-1.224;2023-02-28T04:53:43;100834.69;;;-0.55;66.84
70544;BME280;58097;48.364;-1.224;2023-02-28T04:56:12;100846.44;;;-0.55;66.59
70544;BME280;58097;48.364;-1.224;2023-02-28T04:58:38;100842.78;;;-0.54;66.48
70544;BME280;58097;48.364;-1.224;2023-02-28T05:03:48;100850.91;;;-0.54;66.42
70544;BME280;58097;48.364;-1.224;2023-02-28T05:06:14;100850.03;;;-0.54;66.51
70544;BME280;58097;48.364;-1.224;2023-02-28T05:08:40;100859.13;;;-0.55;66.40
70544;BME280;58097;48.364;-1.224;2023-02-28T05:11:15;100865.31;;;-0.52;66.85
70544;BME280;58097;48.364;-1.224;2023-02-28T05:13:41;100858.09;;;-0.53;66.55
70544;BME280;58097;48.364;-1.224;2023-02-28T05:16:07;100858.91;;;-0.51;66.89
70544;BME280;58097;48.364;-1.224;2023-02-28T05:18:32;100866.13;;;-0.50;66.58
70544;BME280;58097;48.364;-1.224;2023-02-28T05:20:57;100856.28;;;-0.52;66.71
70544;BME280;58097;48.364;-1.224;2023-02-28T05:23:23;100858.34;;;-0.59;66.28
70544;BME280;58097;48.364;-1.224;2023-02-28T05:25:48;100862.91;;;-0.59;66.34
70544;BME280;58097;48.364;-1.224;2023-02-28T05:28:14;100863.03;;;-0.63;66.35
70544;BME280;58097;48.364;-1.224;2023-02-28T05:30:39;100856.88;;;-0.66;66.32
70544;BME280;58097;48.364;-1.224;2023-02-28T05:33:05;100863.09;;;-0.64;66.79
70544;BME280;58097;48.364;-1.224;2023-02-28T05:35:31;100869.56;;;-0.67;66.56
70544;BME280;58097;48.364;-1.224;2023-02-28T05:37:56;100863.25;;;-0.67;66.52
70544;BME280;58097;48.364;-1.224;2023-02-28T05:40:22;100870.44;;;-0.66;67.02
70544;BME280;58097;48.364;-1.224;2023-02-28T05:42:47;100875.06;;;-0.68;66.46
70544;BME280;58097;48.364;-1.224;2023-02-28T05:45:14;100874.03;;;-0.66;67.20
70544;BME280;58097;48.364;-1.224;2023-02-28T05:47:40;100875.00;;;-0.67;66.52
70544;BME280;58097;48.364;-1.224;2023-02-28T05:50:06;100879.47;;;-0.66;67.19
70544;BME280;58097;48.364;-1.224;2023-02-28T05:52:31;100877.78;;;-0.68;66.66
70544;BME280;58097;48.364;-1.224;2023-02-28T05:54:57;100877.91;;;-0.71;66.65
70544;BME280;58097;48.364;-1.224;2023-02-28T05:57:23;100870.03;;;-0.77;66.36
70544;BME280;58097;48.364;-1.224;2023-02-28T05:59:48;100871.88;;;-0.78;66.41
70544;BME280;58097;48.364;-1.224;2023-02-28T06:02:15;100872.75;;;-0.77;66.68
70544;BME280;58097;48.364;-1.224;2023-02-28T06:04:42;100873.63;;;-0.77;66.95
70544;BME280;58097;48.364;-1.224;2023-02-28T06:07:08;100875.47;;;-0.77;66.69
70544;BME280;58097;48.364;-1.224;2023-02-28T06:09:34;100865.28;;;-0.72;66.96
70544;BME280;58097;48.364;-1.224;2023-02-28T06:12:01;100868.94;;;-0.73;66.92
70544;BME280;58097;48.364;-1.224;2023-02-28T06:14:29;100868.94;;;-0.73;66.93
70544;BME280;58097;48.364;-1.224;2023-02-28T06:16:56;100881.56;;;-0.72;66.79
70544;BME280;58097;48.364;-1.224;2023-02-28T06:19:22;100874.31;;;-0.72;66.72
70544;BME280;58097;48.364;-1.224;2023-02-28T06:21:51;100883.34;;;-0.71;66.86
70544;BME280;58097;48.364;-1.224;2023-02-28T06:24:20;100877.69;;;-0.67;67.46
70544;BME280;58097;48.364;-1.224;2023-02-28T06:26:46;100891.13;;;-0.64;67.34
70544;BME280;58097;48.364;-1.224;2023-02-28T06:29:11;100888.34;;;-0.62;67.47
70544;BME280;58097;48.364;-1.224;2023-02-28T06:31:37;100885.63;;;-0.62;67.13
70544;BME280;58097;48.364;-1.224;2023-02-28T06:34:04;100884.81;;;-0.64;66.79
70544;BME280;58097;48.364;-1.224;2023-02-28T06:36:30;100882.19;;;-0.66;66.96
70544;BME280;58097;48.364;-1.224;2023-02-28T06:38:56;100893.09;;;-0.67;67.15
70544;BME280;58097;48.364;-1.224;2023-02-28T06:41:23;100889.50;;;-0.68;66.90
70544;BME280;58097;48.364;-1.224;2023-02-28T06:43:49;100897.59;;;-0.66;67.21
70544;BME280;58097;48.364;-1.224;2023-02-28T06:46:14;100894.06;;;-0.68;67.01
70544;BME280;58097;48.364;-1.224;2023-02-28T06:48:40;100896.78;;;-0.68;66.93
70544;BME280;58097;48.364;-1.224;2023-02-28T06:51:11;100896.09;;;-0.73;66.32
70544;BME280;58097;48.364;-1.224;2023-02-28T06:53:38;100897.03;;;-0.74;66.57
70544;BME280;58097;48.364;-1.224;2023-02-28T06:56:08;100906.28;;;-0.78;66.49
70544;BME280;58097;48.364;-1.224;2023-02-28T06:58:34;100904.56;;;-0.81;66.55
70544;BME280;58097;48.364;-1.224;2023-02-28T07:01:00;100904.78;;;-0.85;66.36
70544;BME280;58097;48.364;-1.224;2023-02-28T07:03:26;100903.00;;;-0.86;66.33
70544;BME280;58097;48.364;-1.224;2023-02-28T07:05:51;100907.53;;;-0.87;66.68
70544;BME280;58097;48.364;-1.224;2023-02-28T07:08:17;100908.47;;;-0.88;66.83
70544;BME280;58097;48.364;-1.224;2023-02-28T07:10:42;100910.19;;;-0.85;66.82
70544;BME280;58097;48.364;-1.224;2023-02-28T07:13:08;100915.66;;;-0.87;66.82
70544;BME280;58097;48.364;-1.224;2023-02-28T07:15:37;100914.75;;;-0.86;66.92
70544;BME280;58097;48.364;-1.224;2023-02-28T07:18:02;100914.78;;;-0.87;66.51
70544;BME280;58097;48.364;-1.224;2023-02-28T07:20:28;100926.47;;;-0.85;66.92
70544;BME280;58097;48.364;-1.224;2023-02-28T07:22:53;100928.25;;;-0.84;67.36
70544;BME280;58097;48.364;-1.224;2023-02-28T07:25:26;100931.59;;;-0.78;67.60
70544;BME280;58097;48.364;-1.224;2023-02-28T07:27:53;100937.75;;;-0.74;67.67
70544;BME280;58097;48.364;-1.224;2023-02-28T07:30:19;100940.34;;;-0.71;67.77
70544;BME280;58097;48.364;-1.224;2023-02-28T07:32:45;100944.56;;;-0.64;67.81
70544;BME280;58097;48.364;-1.224;2023-02-28T07:35:10;100948.91;;;-0.60;67.86
70544;BME280;58097;48.364;-1.224;2023-02-28T07:37:36;100949.53;;;-0.53;68.04
70544;BME280;58097;48.364;-1.224;2023-02-28T07:40:06;100956.53;;;-0.48;68.81
70544;BME280;58097;48.364;-1.224;2023-02-28T07:42:33;100954.63;;;-0.46;68.37
70544;BME280;58097;48.364;-1.224;2023-02-28T07:44:59;100961.69;;;-0.42;69.54
70544;BME280;58097;48.364;-1.224;2023-02-28T07:47:24;100962.38;;;-0.37;69.16
70544;BME280;58097;48.364;-1.224;2023-02-28T07:49:50;100959.38;;;-0.31;69.75
70544;BME280;58097;48.364;-1.224;2023-02-28T07:52:15;100961.94;;;-0.26;69.23
70544;BME280;58097;48.364;-1.224;2023-02-28T07:54:41;100960.63;;;-0.17;69.53
70544;BME280;58097;48.364;-1.224;2023-02-28T07:57:06;100958.44;;;-0.09;69.64
70544;BME280;58097;48.364;-1.224;2023-02-28T07:59:31;100956.22;;;0.01;69.81
70544;BME280;58097;48.364;-1.224;2023-02-28T08:01:57;100958.50;;;0.10;69.32
70544;BME280;58097;48.364;-1.224;2023-02-28T08:04:23;100955.28;;;0.20;69.46
70544;BME280;58097;48.364;-1.224;2023-02-28T08:06:48;100964.59;;;0.35;69.54
70544;BME280;58097;48.364;-1.224;2023-02-28T08:09:17;100961.22;;;0.49;69.41
70544;BME280;58097;48.364;-1.224;2023-02-28T08:11:42;100968.81;;;0.61;69.00
70544;BME280;58097;48.364;-1.224;2023-02-28T08:14:07;100964.19;;;0.63;68.95
70544;BME280;58097;48.364;-1.224;2023-02-28T08:16:33;100964.63;;;0.73;69.15
70544;BME280;58097;48.364;-1.224;2023-02-28T08:18:58;100960.72;;;0.78;68.77
70544;BME280;58097;48.364;-1.224;2023-02-28T08:21:23;100965.66;;;0.89;68.70
70544;BME280;58097;48.364;-1.224;2023-02-28T08:23:50;100969.69;;;0.99;68.78
70544;BME280;58097;48.364;-1.224;2023-02-28T08:26:17;100969.00;;;1.13;68.46
70544;BME280;58097;48.364;-1.224;2023-02-28T08:28:42;100964.34;;;1.34;68.57
70544;BME280;58097;48.364;-1.224;2023-02-28T08:31:11;100958.78;;;1.54;68.36
70544;BME280;58097;48.364;-1.224;2023-02-28T08:33:38;100952.59;;;1.68;67.57
70544;BME280;58097;48.364;-1.224;2023-02-28T08:36:04;100960.75;;;1.68;66.80
70544;BME280;58097;48.364;-1.224;2023-02-28T08:38:30;100963.25;;;1.90;67.41
70544;BME280;58097;48.364;-1.224;2023-02-28T08:41:00;100963.97;;;2.10;67.14
70544;BME280;58097;48.364;-1.224;2023-02-28T08:43:26;100968.19;;;2.33;66.74
70544;BME280;58097;48.364;-1.224;2023-02-28T08:45:53;100966.00;;;2.40;66.28
70544;BME280;58097;48.364;-1.224;2023-02-28T08:48:18;100960.13;;;2.47;65.61
70544;BME280;58097;48.364;-1.224;2023-02-28T08:50:43;100957.19;;;2.68;65.77
70544;BME280;58097;48.364;-1.224;2023-02-28T08:53:09;100956.91;;;2.72;63.78
70544;BME280;58097;48.364;-1.224;2023-02-28T08:55:34;100969.44;;;2.76;63.43
70544;BME280;58097;48.364;-1.224;2023-02-28T08:57:59;100970.41;;;2.75;63.84
70544;BME280;58097;48.364;-1.224;2023-02-28T09:00:26;100969.47;;;2.92;64.86
70544;BME280;58097;48.364;-1.224;2023-02-28T09:02:51;100960.47;;;3.22;65.08
70544;BME280;58097;48.364;-1.224;2023-02-28T09:05:17;100967.94;;;3.34;63.86
70544;BME280;58097;48.364;-1.224;2023-02-28T09:07:42;100968.38;;;3.42;62.41
70544;BME280;58097;48.364;-1.224;2023-02-28T09:10:08;100968.53;;;3.55;62.17
70544;BME280;58097;48.364;-1.224;2023-02-28T09:12:34;100970.22;;;3.41;60.89
70544;BME280;58097;48.364;-1.224;2023-02-28T09:15:00;100962.56;;;3.48;60.95
70544;BME280;58097;48.364;-1.224;2023-02-28T09:17:26;100966.00;;;3.52;59.81
70544;BME280;58097;48.364;-1.224;2023-02-28T09:19:51;100950.78;;;3.62;60.42
70544;BME280;58097;48.364;-1.224;2023-02-28T09:22:16;100957.34;;;3.59;60.10
70544;BME280;58097;48.364;-1.224;2023-02-28T09:24:42;100959.13;;;3.74;61.23
70544;BME280;58097;48.364;-1.224;2023-02-28T09:27:08;100957.75;;;3.97;61.41
70544;BME280;58097;48.364;-1.224;2023-02-28T09:29:34;100955.34;;;4.07;59.18
70544;BME280;58097;48.364;-1.224;2023-02-28T09:31:59;100955.97;;;3.96;58.14
70544;BME280;58097;48.364;-1.224;2023-02-28T09:34:26;100952.69;;;4.06;59.24
70544;BME280;58097;48.364;-1.224;2023-02-28T09:36:51;100959.44;;;4.28;59.42
70544;BME280;58097;48.364;-1.224;2023-02-28T09:39:23;100963.25;;;4.12;56.90
70544;BME280;58097;48.364;-1.224;2023-02-28T09:41:51;100965.81;;;4.29;56.74
70544;BME280;58097;48.364;-1.224;2023-02-28T09:44:40;100969.72;;;4.25;54.20
70544;BME280;58097;48.364;-1.224;2023-02-28T09:47:31;100969.34;;;4.45;56.40
70544;BME280;58097;48.364;-1.224;2023-02-28T09:50:15;100971.50;;;4.40;53.07
70544;BME280;58097;48.364;-1.224;2023-02-28T09:52:44;100969.25;;;4.47;54.26
70544;BME280;58097;48.364;-1.224;2023-02-28T09:55:30;100970.94;;;4.63;55.10
70544;BME280;58097;48.364;-1.224;2023-02-28T09:57:57;100975.03;;;4.85;55.85
70544;BME280;58097;48.364;-1.224;2023-02-28T10:00:32;100966.69;;;5.01;55.02
70544;BME280;58097;48.364;-1.224;2023-02-28T10:05:31;100963.97;;;4.86;54.28
70544;BME280;58097;48.364;-1.224;2023-02-28T10:08:07;100967.31;;;4.77;52.96
70544;BME280;58097;48.364;-1.224;2023-02-28T10:10:43;100970.13;;;4.90;54.64
70544;BME280;58097;48.364;-1.224;2023-02-28T10:13:17;100959.94;;;5.06;54.74
70544;BME280;58097;48.364;-1.224;2023-02-28T10:15:47;100960.59;;;5.10;52.99
70544;BME280;58097;48.364;-1.224;2023-02-28T10:18:20;100963.81;;;5.16;52.93
70544;BME280;58097;48.364;-1.224;2023-02-28T10:20:47;100960.97;;;5.18;53.26
70544;BME280;58097;48.364;-1.224;2023-02-28T10:23:19;100960.75;;;4.94;51.37
70544;BME280;58097;48.364;-1.224;2023-02-28T10:25:53;100958.66;;;5.12;54.59
70544;BME280;58097;48.364;-1.224;2023-02-28T10:28:19;100949.72;;;5.22;51.34
70544;BME280;58097;48.364;-1.224;2023-02-28T10:30:52;100953.91;;;5.28;53.07
70544;BME280;58097;48.364;-1.224;2023-02-28T10:33:22;100943.94;;;5.54;52.14
70544;BME280;58097;48.364;-1.224;2023-02-28T10:35:48;100958.84;;;5.50;52.96
70544;BME280;58097;48.364;-1.224;2023-02-28T10:38:25;100941.56;;;5.62;50.90
70544;BME280;58097;48.364;-1.224;2023-02-28T10:40:51;100965.28;;;5.49;48.24
70544;BME280;58097;48.364;-1.224;2023-02-28T10:48:34;100936.34;;;5.84;49.38
70544;BME280;58097;48.364;-1.224;2023-02-28T10:51:01;100937.28;;;5.98;51.47
70544;BME280;58097;48.364;-1.224;2023-02-28T10:53:38;100934.78;;;6.07;49.52
70544;BME280;58097;48.364;-1.224;2023-02-28T11:01:43;100934.22;;;6.02;48.03
70544;BME280;58097;48.364;-1.224;2023-02-28T11:06:45;100924.69;;;6.20;46.72
70544;BME280;58097;48.364;-1.224;2023-02-28T11:09:21;100927.75;;;6.29;47.87
70544;BME280;58097;48.364;-1.224;2023-02-28T11:11:48;100918.75;;;6.27;47.72
70544;BME280;58097;48.364;-1.224;2023-02-28T11:14:23;100931.75;;;6.37;48.66
70544;BME280;58097;48.364;-1.224;2023-02-28T11:16:51;100918.34;;;6.45;48.14
70544;BME280;58097;48.364;-1.224;2023-02-28T11:19:29;100915.47;;;6.47;47.59
70544;BME280;58097;48.364;-1.224;2023-02-28T11:22:01;100914.16;;;6.40;46.54
70544;BME280;58097;48.364;-1.224;2023-02-28T11:24:29;100928.88;;;6.39;46.46
70544;BME280;58097;48.364;-1.224;2023-02-28T11:26:57;100905.81;;;6.29;46.30
70544;BME280;58097;48.364;-1.224;2023-02-28T11:29:28;100913.59;;;6.22;47.32
70544;BME280;58097;48.364;-1.224;2023-02-28T11:34:41;100907.69;;;6.15;47.11
70544;BME280;58097;48.364;-1.224;2023-02-28T11:37:18;100903.28;;;6.26;48.16
70544;BME280;58097;48.364;-1.224;2023-02-28T11:39:45;100896.59;;;6.42;47.12
70544;BME280;58097;48.364;-1.224;2023-02-28T11:55:36;100881.91;;;7.17;48.47
70544;BME280;58097;48.364;-1.224;2023-02-28T12:01:12;100871.44;;;7.22;47.28
70544;BME280;58097;48.364;-1.224;2023-02-28T12:04:02;100869.34;;;7.25;46.53
70544;BME280;58097;48.364;-1.224;2023-02-28T12:12:13;100858.31;;;7.49;47.54
70544;BME280;58097;48.364;-1.224;2023-02-28T12:23:25;100854.44;;;7.52;47.69
70544;BME280;58097;48.364;-1.224;2023-02-28T12:26:11;100843.81;;;7.47;47.44
70544;BME280;58097;48.364;-1.224;2023-02-28T12:28:44;100858.66;;;7.44;48.61
70544;BME280;58097;48.364;-1.224;2023-02-28T12:31:19;100848.56;;;7.21;48.09
70544;BME280;58097;48.364;-1.224;2023-02-28T12:33:56;100844.09;;;6.83;47.62
70544;BME280;58097;48.364;-1.224;2023-02-28T12:36:24;100843.16;;;6.72;48.59
70544;BME280;58097;48.364;-1.224;2023-02-28T12:39:04;100826.50;;;6.49;47.39
70544;BME280;58097;48.364;-1.224;2023-02-28T12:44:07;100815.38;;;6.88;49.77
70544;BME280;58097;48.364;-1.224;2023-02-28T12:46:38;100809.84;;;7.00;48.75
70544;BME280;58097;48.364;-1.224;2023-02-28T12:49:09;100808.97;;;7.24;49.95
70544;BME280;58097;48.364;-1.224;2023-02-28T12:51:36;100801.75;;;7.34;48.96
70544;BME280;58097;48.364;-1.224;2023-02-28T12:57:09;100800.88;;;6.86;48.55
70544;BME280;58097;48.364;-1.224;2023-02-28T12:59:51;100800.75;;;6.63;47.80
70544;BME280;58097;48.364;-1.224;2023-02-28T13:10:15;100779.84;;;6.73;50.34
70544;BME280;58097;48.364;-1.224;2023-02-28T13:12:52;100779.13;;;6.59;48.81
70544;BME280;58097;48.364;-1.224;2023-02-28T13:15:25;100773.78;;;6.44;48.63
70544;BME280;58097;48.364;-1.224;2023-02-28T13:17:55;100771.28;;;6.41;49.33
70544;BME280;58097;48.364;-1.224;2023-02-28T13:20:24;100765.56;;;6.32;49.56
70544;BME280;58097;48.364;-1.224;2023-02-28T13:22:52;100781.50;;;6.27;50.91
70544;BME280;58097;48.364;-1.224;2023-02-28T13:27:47;100784.38;;;6.25;52.67
70544;BME280;58097;48.364;-1.224;2023-02-28T13:33:34;100779.22;;;6.20;52.75
70544;BME280;58097;48.364;-1.224;2023-02-28T13:57:11;100753.44;;;5.59;57.15
70544;BME280;58097;48.364;-1.224;2023-02-28T14:00:17;100758.25;;;5.56;58.13
70544;BME280;58097;48.364;-1.224;2023-02-28T14:03:10;100766.13;;;5.48;58.14
70544;BME280;58097;48.364;-1.224;2023-02-28T14:05:39;100752.31;;;5.37;58.89
70544;BME280;58097;48.364;-1.224;2023-02-28T14:08:17;100757.69;;;5.25;59.81
70544;BME280;58097;48.364;-1.224;2023-02-28T14:10:48;100752.72;;;5.18;59.79
70544;BME280;58097;48.364;-1.224;2023-02-28T14:13:38;100754.91;;;5.13;60.18
70544;BME280;58097;48.364;-1.224;2023-02-28T14:16:10;100757.72;;;4.98;61.75
70544;BME280;58097;48.364;-1.224;2023-02-28T14:18:41;100756.28;;;4.93;61.98
70544;BME280;58097;48.364;-1.224;2023-02-28T14:21:22;100762.38;;;4.84;62.19
70544;BME280;58097;48.364;-1.224;2023-02-28T14:30:11;100752.09;;;4.60;64.21
70544;BME280;58097;48.364;-1.224;2023-02-28T14:38:23;100740.00;;;4.77;64.04
70544;BME280;58097;48.364;-1.224;2023-02-28T14:40:52;100736.84;;;4.83;64.64
70544;BME280;58097;48.364;-1.224;2023-02-28T14:43:27;100738.28;;;4.89;63.40
70544;BME280;58097;48.364;-1.224;2023-02-28T14:45:58;100736.84;;;4.83;63.66
70544;BME280;58097;48.364;-1.224;2023-02-28T14:48:25;100726.56;;;4.87;63.94
70544;BME280;58097;48.364;-1.224;2023-02-28T14:50:57;100737.28;;;4.90;64.75
70544;BME280;58097;48.364;-1.224;2023-02-28T14:53:25;100732.19;;;4.98;65.26
70544;BME280;58097;48.364;-1.224;2023-02-28T14:55:52;100735.25;;;4.93;63.97
70544;BME280;58097;48.364;-1.224;2023-02-28T15:00:53;100721.78;;;5.03;64.01
70544;BME280;58097;48.364;-1.224;2023-02-28T15:05:55;100727.06;;;5.06;64.88
70544;BME280;58097;48.364;-1.224;2023-02-28T15:08:21;100727.25;;;5.03;64.77
70544;BME280;58097;48.364;-1.224;2023-02-28T15:16:08;100716.19;;;4.92;65.49
70544;BME280;58097;48.364;-1.224;2023-02-28T15:18:48;100715.38;;;4.90;66.04
70544;BME280;58097;48.364;-1.224;2023-02-28T15:21:20;100715.38;;;4.90;66.35
70544;BME280;58097;48.364;-1.224;2023-02-28T15:23:48;100714.22;;;4.94;67.18
70544;BME280;58097;48.364;-1.224;2023-02-28T15:26:19;100712.25;;;4.96;67.09
70544;BME280;58097;48.364;-1.224;2023-02-28T15:28:45;100706.28;;;4.89;68.72
70544;BME280;58097;48.364;-1.224;2023-02-28T15:31:29;100710.78;;;4.90;68.70
70544;BME280;58097;48.364;-1.224;2023-02-28T15:33:58;100708.16;;;4.89;68.04
70544;BME280;58097;48.364;-1.224;2023-02-28T15:36:30;100705.53;;;4.87;68.65
70544;BME280;58097;48.364;-1.224;2023-02-28T15:38:57;100710.44;;;4.82;69.17